Flight Track Log - Related Links

Times and Time Zones

All times are in EST time to prevent confusion due to time zone crossing. See the UAL5669 flight status page for this flight to view local times or setup timezone preferences in your user account.

Time Position Orientation Groundspeed Altitude Reporting Facility
EST Latitude Longitude Course Direction KTS MPH feet Rate Location/Type
Thu 01:36:44 PM 43.6500 -79.5833 117° Southeast 10 12 700  Level Toronto Center
Thu 01:37:44 PM 43.6333 -79.6333 245° Southwest 170 196 3,300 2,350 Climbing Toronto Center
Thu 01:38:44 PM 43.5667 -79.6333 180° South 230 265 5,400 1,800 Climbing Toronto Center
Thu 01:39:00 PM 43.5181 -79.3128 125° Southeast  Level Estimated
Thu 01:39:44 PM 43.5000 -79.6167 170° South 290 334 6,900  Level Toronto Center
Thu 01:40:00 PM 43.4649 -79.2073 105° East  Level Estimated
Thu 01:40:44 PM 43.4833 -79.4667 99° East 320 368 6,900  Level Toronto Center
Thu 01:41:00 PM 43.4116 -79.1019 117° Southeast  Level Estimated
Thu 01:41:44 PM 43.4667 -79.3500 101° East 330 380 7,400  Level Toronto Center
Thu 01:42:00 PM 43.3582 -78.9967 117° Southeast  Level Estimated
Thu 01:42:44 PM 43.4500 -79.2500 103° East 320 368 9,800  Level Toronto Center
Thu 01:43:44 PM 43.4333 -79.1000 99° East 340 391 11,200 1,200 Climbing Toronto Center
Thu 01:44:44 PM 43.4333 -78.9667 90° East 380 437 12,200 950 Climbing Toronto Center
Thu 01:45:44 PM 43.3833 -78.8333 117° Southeast 400 460 13,100 950 Climbing Toronto Center
Thu 01:46:44 PM 43.3167 -78.7000 124° Southeast 410 472 14,100 950 Climbing Toronto Center
Thu 01:47:44 PM 43.2500 -78.5500 121° Southeast 420 483 15,000 950 Climbing Toronto Center
Thu 01:48:44 PM 43.1667 -78.4167 131° Southeast 430 495 16,000 1,000 Climbing Toronto Center
Thu 01:49:44 PM 43.1000 -78.2833 124° Southeast 430 495 17,000 950 Climbing Toronto Center
Thu 01:50:44 PM 43.0333 -78.1500 124° Southeast 440 506 17,900 950 Climbing Toronto Center
Thu 01:51:44 PM 42.9667 -78.0000 121° Southeast 440 506 18,900 1,000 Climbing Toronto Center
Thu 01:52:44 PM 42.9333 -77.8333 105° East 460 529 19,900 950 Climbing Toronto Center
Thu 01:53:44 PM 42.9000 -77.6500 104° East 470 541 20,800 950 Climbing Toronto Center
Thu 01:54:44 PM 42.8667 -77.5000 107° East 470 541 21,800 1,000 Climbing Toronto Center
Thu 01:55:44 PM 42.8167 -77.3167 110° East 470 541 22,800 950 Climbing Toronto Center
Thu 01:56:44 PM 42.7667 -77.1500 112° Southeast 480 552 23,700 950 Climbing Toronto Center
Thu 01:57:44 PM 42.7333 -76.9833 105° East 480 552 24,700 1,000 Climbing Toronto Center
Thu 01:58:44 PM 42.7000 -76.8167 105° East 470 541 25,700 950 Climbing Toronto Center
Thu 01:59:44 PM 42.6500 -76.6333 110° East 470 541 26,600 650 Climbing Toronto Center
Thu 02:00:44 PM 42.6000 -76.4833 114° Southeast 460 529 27,000 200 Climbing Toronto Center
Thu 02:01:44 PM 42.5333 -76.3333 121° Southeast 460 529 27,000  Level Toronto Center
Thu 02:02:44 PM 42.4667 -76.1833 121° Southeast 480 552 27,000 -100 Level Toronto Center
Thu 02:03:44 PM 42.3833 -76.0167 124° Southeast 490 564 26,800 -950 Descending Toronto Center
Thu 02:04:44 PM 42.3167 -75.8667 121° Southeast 500 575 25,100 -1,850 Descending Toronto Center
Thu 02:05:44 PM 42.2500 -75.7167 121° Southeast 500 575 23,100 -2,085 Descending Toronto Center
Thu 02:07:05 PM 42.1731 -75.5525 122° Southeast 481 554 20,200 -1,915 Descending Boston Center
Thu 02:08:05 PM 42.1050 -75.4058 122° Southeast 465 535 18,600 -1,091 Descending Boston Center
Thu 02:09:06 PM 42.0419 -75.2594 120° Southeast 456 525 18,000 -295 Descending Boston Center
Thu 02:10:07 PM 41.9736 -75.0769 117° Southeast 472 543 18,000  Level Boston Center
Thu 02:11:10 PM 41.9164 -74.9264 117° Southeast 455 524 18,000 -339 Level Boston Center
Thu 02:12:11 PM 41.8592 -74.7775 117° Southeast 450 518 17,300 -1,180 Descending Boston Center
Thu 02:13:12 PM 41.7981 -74.6194 117° Southeast 442 509 15,600 -1,835 Descending Boston Center
Thu 02:14:12 PM 41.7436 -74.4789 117° Southeast 427 491 13,600 -1,884 Descending Boston Center
Thu 02:15:13 PM 41.6925 -74.3542 119° Southeast 386 444 11,800 -1,584 Descending Boston Center
Thu 02:16:17 PM 41.6047 -74.3108 160° South 313 360 10,300 -1,200 Descending Boston Center
Thu 02:17:18 PM 41.5292 -74.3225 187° South 284 327 9,300 -984 Descending Boston Center
Thu 02:18:19 PM 41.4564 -74.2761 154° Southeast 294 338 8,300 -1,082 Descending Boston Center
Thu 02:19:20 PM 41.3911 -74.3314 212° Southwest 260 299 7,100 -857 Descending Boston Center
Thu 02:21:00 PM 41.2833 -74.3333 181° South 296 341 6,000 -638 Descending New York TRACON
Thu 02:22:00 PM 41.2000 -74.2833 156° South 307 353 5,400 -500 Descending New York TRACON
Thu 02:23:00 PM 41.1333 -74.2500 159° South 280 322 5,000 -381 Descending New York TRACON
Thu 02:24:06 PM 41.0667 -74.2000 151° Southeast 265 305 4,600 -476 Descending New York TRACON
Thu 02:25:06 PM 41.0000 -74.1500 150° Southeast 246 283 4,000 -350 Descending New York TRACON
Thu 02:26:06 PM 40.9500 -74.1000 143° Southeast 235 270 3,900 -400 Descending New York TRACON
Thu 02:27:06 PM 40.9000 -74.0667 153° Southeast 203 234 3,200 -450 Descending New York TRACON
Thu 02:28:06 PM 40.8500 -74.0667 180° South 171 197 3,000 -300 Descending New York TRACON
Thu 02:29:06 PM 40.8167 -74.0833 201° Southwest 142 163 2,600 -600 Descending New York TRACON
Thu 02:30:06 PM 40.7833 -74.1167 217° Southwest 137 158 1,800 -750 Descending New York TRACON
Thu 02:31:06 PM 40.7500 -74.1333 201° Southwest 130 150 1,100 -750 Descending New York TRACON
Thu 02:32:06 PM 40.7167 -74.1500 201° Southwest 134 154 300 -800 Descending New York TRACON

Login

Don't have an account? Register now (free) for customized features, flight alerts, and more!